^^
Meteo Knjazevac Station Historical Data
Daily Summary for June 16, 2021 Units:  Both    English   Metric
Daily Weekly Monthly Yearly Custom
  High: Low: Average:
Temperature: 36.7 °F /  2.6 °C 33.4 °F /  0.8 °C 34.7 °F /  1.5 °C
Dew Point: 34.8 °F /  1.6 °C 31.5 °F /  -0.3 °C 33 °F /  0.6 °C
Humidity: 95% 91% 94%
Wind Speed: 8mph /  12.9km/h - 2.9mph /  4.7km/h
Wind Gust: 14mph /  22.5km/h - -
Wind- - SSW
Pressure: 30.32 in /  1026.6 hPa 30.29 in /  1025.6 hPa -
Precipitation: 0.00 in /  0 mm    
Historical Graphs
 
 
Tabular Data for June 16, 2021
Time Temperature Dew Point Pressure Wind Wind Speed Wind Gust Humidity Rainfall Rate (Hourly) solar Conditions
00:00 34 °F /  1.1 °C 31.6 °F /  -0.2 °C 30.32in /  1026.6hPa SSW 2mph /  3.2km/h 4mph /  6.4km/h 91% 0.00in /  0mm 0 W/m2
00:10 33.8 °F /  1 °C 31.5 °F /  -0.3 °C 30.32in /  1026.6hPa SSW 1mph /  1.6km/h 5mph /  8km/h 91% 0.00in /  0mm 0 W/m2
00:20 33.8 °F /  1 °C 31.5 °F /  -0.3 °C 30.32in /  1026.6hPa South 2mph /  3.2km/h 5mph /  8km/h 91% 0.00in /  0mm 0 W/m2
00:30 33.8 °F /  1 °C 31.5 °F /  -0.3 °C 30.32in /  1026.6hPa SSW 3mph /  4.8km/h 6mph /  9.7km/h 91% 0.00in /  0mm 0 W/m2
00:40 33.8 °F /  1 °C 31.5 °F /  -0.3 °C 30.32in /  1026.6hPa SSW 2mph /  3.2km/h 6mph /  9.7km/h 91% 0.00in /  0mm 0 W/m2
00:50 33.8 °F /  1 °C 31.5 °F /  -0.3 °C 30.32in /  1026.6hPa SSW 2mph /  3.2km/h 5mph /  8km/h 91% 0.00in /  0mm 0 W/m2
01:00 33.8 °F /  1 °C 31.5 °F /  -0.3 °C 30.32in /  1026.6hPa South 1mph /  1.6km/h 6mph /  9.7km/h 91% 0.00in /  0mm 0 W/m2
01:10 33.8 °F /  1 °C 31.5 °F /  -0.3 °C 30.32in /  1026.6hPa South 2mph /  3.2km/h 5mph /  8km/h 91% 0.00in /  0mm 0 W/m2
01:20 33.8 °F /  1 °C 31.5 °F /  -0.3 °C 30.31in /  1026.3hPa SSW 1mph /  1.6km/h 3mph /  4.8km/h 91% 0.00in /  0mm 0 W/m2
01:30 33.6 °F /  0.9 °C 31.8 °F /  -0.1 °C 30.31in /  1026.3hPa Calm   4mph /  6.4km/h 93% 0.00in /  0mm 0 W/m2
01:40 33.6 °F /  0.9 °C 31.8 °F /  -0.1 °C 30.31in /  1026.3hPa NE 1mph /  1.6km/h 3mph /  4.8km/h 93% 0.00in /  0mm 0 W/m2
01:50 33.4 °F /  0.8 °C 31.6 °F /  -0.2 °C 30.31in /  1026.3hPa SE 2mph /  3.2km/h 3mph /  4.8km/h 93% 0.00in /  0mm 0 W/m2
02:00 33.6 °F /  0.9 °C 31.8 °F /  -0.1 °C 30.31in /  1026.3hPa SE 1mph /  1.6km/h 3mph /  4.8km/h 93% 0.00in /  0mm 0 W/m2
02:10 33.6 °F /  0.9 °C 31.8 °F /  -0.1 °C 30.31in /  1026.3hPa SE 2mph /  3.2km/h 5mph /  8km/h 93% 0.00in /  0mm 0 W/m2
02:20 33.6 °F /  0.9 °C 31.8 °F /  -0.1 °C 30.31in /  1026.3hPa SSE 2mph /  3.2km/h 4mph /  6.4km/h 93% 0.00in /  0mm 0 W/m2
02:30 33.8 °F /  1 °C 32.3 °F /  0.2 °C 30.31in /  1026.3hPa South 2mph /  3.2km/h 5mph /  8km/h 94% 0.00in /  0mm 0 W/m2
02:40 33.8 °F /  1 °C 32.3 °F /  0.2 °C 30.31in /  1026.3hPa SSW 3mph /  4.8km/h 4mph /  6.4km/h 94% 0.00in /  0mm 0 W/m2
02:50 34 °F /  1.1 °C 32.4 °F /  0.2 °C 30.31in /  1026.3hPa SW 2mph /  3.2km/h 4mph /  6.4km/h 94% 0.00in /  0mm 0 W/m2
03:00 34 °F /  1.1 °C 32.4 °F /  0.2 °C 30.30in /  1026hPa SSW 2mph /  3.2km/h 4mph /  6.4km/h 94% 0.00in /  0mm 0 W/m2
03:10 34 °F /  1.1 °C 32.5 °F /  0.3 °C 30.30in /  1026hPa SW 2mph /  3.2km/h 5mph /  8km/h 94% 0.00in /  0mm 0 W/m2
03:20 34.2 °F /  1.2 °C 32.6 °F /  0.3 °C 30.30in /  1026hPa SW 3mph /  4.8km/h 6mph /  9.7km/h 94% 0.00in /  0mm 0 W/m2
03:30 34.3 °F /  1.3 °C 32.8 °F /  0.4 °C 30.30in /  1026hPa SW 2mph /  3.2km/h 6mph /  9.7km/h 94% 0.00in /  0mm 0 W/m2
03:40 34.3 °F /  1.3 °C 33.1 °F /  0.6 °C 30.30in /  1026hPa SW 2mph /  3.2km/h 4mph /  6.4km/h 95% 0.00in /  0mm 0 W/m2
03:50 34.3 °F /  1.3 °C 32.8 °F /  0.4 °C 30.30in /  1026hPa WSW 1mph /  1.6km/h 3mph /  4.8km/h 94% 0.00in /  0mm 0 W/m2
04:00 34.3 °F /  1.3 °C 32.8 °F /  0.4 °C 30.30in /  1026hPa South 1mph /  1.6km/h 4mph /  6.4km/h 94% 0.00in /  0mm 0 W/m2
04:10 34.5 °F /  1.4 °C 33.2 °F /  0.7 °C 30.30in /  1026hPa SSW 1mph /  1.6km/h 4mph /  6.4km/h 95% 0.00in /  0mm 0 W/m2
04:20 34.5 °F /  1.4 °C 33.2 °F /  0.7 °C 30.30in /  1026hPa WSW 2mph /  3.2km/h 3mph /  4.8km/h 95% 0.00in /  0mm 0 W/m2
04:30 34.5 °F /  1.4 °C 33.2 °F /  0.7 °C 30.30in /  1026hPa WSW 2mph /  3.2km/h 6mph /  9.7km/h 95% 0.00in /  0mm 0 W/m2
04:40 34.7 °F /  1.5 °C 33.4 °F /  0.8 °C 30.30in /  1026hPa SW 3mph /  4.8km/h 5mph /  8km/h 95% 0.00in /  0mm 0 W/m2
04:50 34.7 °F /  1.5 °C 33.4 °F /  0.8 °C 30.30in /  1026hPa SW 6mph /  9.7km/h 8mph /  12.9km/h 95% 0.00in /  0mm 0 W/m2
05:00 34.9 °F /  1.6 °C 33.6 °F /  0.9 °C 30.30in /  1026hPa SW 3mph /  4.8km/h 8mph /  12.9km/h 95% 0.00in /  0mm 0 W/m2
05:10 34.9 °F /  1.6 °C 33.6 °F /  0.9 °C 30.30in /  1026hPa SW 2mph /  3.2km/h 6mph /  9.7km/h 95% 0.00in /  0mm 0 W/m2
05:20 34.9 °F /  1.6 °C 33.6 °F /  0.9 °C 30.30in /  1026hPa SW 2mph /  3.2km/h 4mph /  6.4km/h 95% 0.00in /  0mm 0 W/m2
05:30 34.9 °F /  1.6 °C 33.6 °F /  0.9 °C 30.30in /  1026hPa South 2mph /  3.2km/h 4mph /  6.4km/h 95% 0.00in /  0mm 0 W/m2
05:40 34.9 °F /  1.6 °C 33.6 °F /  0.9 °C 30.30in /  1026hPa SSW 2mph /  3.2km/h 4mph /  6.4km/h 95% 0.00in /  0mm 0 W/m2
05:50 34.9 °F /  1.6 °C 33.6 °F /  0.9 °C 30.30in /  1026hPa SW 2mph /  3.2km/h 4mph /  6.4km/h 95% 0.00in /  0mm 0 W/m2
06:00 34.9 °F /  1.6 °C 33.4 °F /  0.8 °C 30.30in /  1026hPa SW 3mph /  4.8km/h 5mph /  8km/h 94% 0.00in /  0mm 0 W/m2
06:10 35.1 °F /  1.7 °C 33.5 °F /  0.8 °C 30.30in /  1026hPa WSW 2mph /  3.2km/h 6mph /  9.7km/h 94% 0.00in /  0mm 0 W/m2
06:20 35.1 °F /  1.7 °C 33.5 °F /  0.8 °C 30.30in /  1026hPa SW 3mph /  4.8km/h 6mph /  9.7km/h 94% 0.00in /  0mm 0 W/m2
06:30 35.2 °F /  1.8 °C 33.7 °F /  0.9 °C 30.30in /  1026hPa SW 3mph /  4.8km/h 7mph /  11.3km/h 94% 0.00in /  0mm 0 W/m2
06:40 35.2 °F /  1.8 °C 33.7 °F /  0.9 °C 30.30in /  1026hPa SW 2mph /  3.2km/h 7mph /  11.3km/h 94% 0.00in /  0mm 0 W/m2
06:50 35.4 °F /  1.9 °C 33.9 °F /  1.1 °C 30.30in /  1026hPa SW 3mph /  4.8km/h 8mph /  12.9km/h 94% 0.00in /  0mm 0 W/m2
07:00 35.4 °F /  1.9 °C 33.9 °F /  1.1 °C 30.30in /  1026hPa WSW 5mph /  8km/h 6mph /  9.7km/h 94% 0.00in /  0mm 1 W/m2
07:10 35.4 °F /  1.9 °C 33.9 °F /  1.1 °C 30.30in /  1026hPa SW 5mph /  8km/h 7mph /  11.3km/h 94% 0.00in /  0mm 2 W/m2
07:20 35.4 °F /  1.9 °C 33.9 °F /  1.1 °C 30.30in /  1026hPa SW 6mph /  9.7km/h 7mph /  11.3km/h 94% 0.00in /  0mm 4 W/m2
07:30 35.6 °F /  2 °C 34 °F /  1.1 °C 30.30in /  1026hPa SW 5mph /  8km/h 9mph /  14.5km/h 94% 0.00in /  0mm 5 W/m2
07:40 35.6 °F /  2 °C 34 °F /  1.1 °C 30.30in /  1026hPa SW 5mph /  8km/h 9mph /  14.5km/h 94% 0.00in /  0mm 12 W/m2
07:50 35.6 °F /  2 °C 34.1 °F /  1.2 °C 30.29in /  1025.6hPa SW 5mph /  8km/h 7mph /  11.3km/h 94% 0.00in /  0mm 18 W/m2
08:00 35.8 °F /  2.1 °C 34.2 °F /  1.2 °C 30.30in /  1026hPa WSW 3mph /  4.8km/h 6mph /  9.7km/h 94% 0.00in /  0mm 24 W/m2
08:10 35.8 °F /  2.1 °C 34.2 °F /  1.2 °C 30.30in /  1026hPa SW 3mph /  4.8km/h 7mph /  11.3km/h 94% 0.00in /  0mm 26 W/m2
08:20 36 °F /  2.2 °C 34.4 °F /  1.3 °C 30.30in /  1026hPa WSW 5mph /  8km/h 7mph /  11.3km/h 94% 0.00in /  0mm 35 W/m2
08:30 36.3 °F /  2.4 °C 34.5 °F /  1.4 °C 30.30in /  1026hPa WSW 7mph /  11.3km/h 12mph /  19.3km/h 93% 0.00in /  0mm 65 W/m2
08:40 36.5 °F /  2.5 °C 34.7 °F /  1.5 °C 30.30in /  1026hPa WSW 6mph /  9.7km/h 14mph /  22.5km/h 93% 0.00in /  0mm 73 W/m2
08:50 36.7 °F /  2.6 °C 34.8 °F /  1.6 °C 30.30in /  1026hPa WSW 8mph /  12.9km/h 12mph /  19.3km/h 93% 0.00in /  0mm 82 W/m2
09:00 36.7 °F /  2.6 °C 34.8 °F /  1.6 °C 30.30in /  1026hPa WSW 7mph /  11.3km/h 13mph /  20.9km/h 93% 0.00in /  0mm 96 W/m2
Knjazevac, Serbia
Compliments of Weather Underground - 2 mb